Time;durP1;ratioP1;P1;durP2;ratioP2;P2;SDS_P1;SDS_P2;PMS_P1;PMS_P2;Temp;Humidity;BMP_temperature;BMP_pressure;BME280_temperature;BME280_humidity;BME280_pressure;Samples;Min_cycle;Max_cycle;Signal;HPM_P1;HPM_P2
2023/11/18 00:00:14;;;;;;;4.80;3.70;;;;;;;4.95;79.78;99459.13;4991824;28;103822;-64
2023/11/18 00:02:43;;;;;;;7.75;3.72;;;;;;;4.98;79.60;99456.31;4998757;27;104236;-63
2023/11/18 00:05:12;;;;;;;4.70;3.10;;;;;;;4.95;79.40;99452.13;4993400;28;103248;-64
2023/11/18 00:07:40;;;;;;;5.85;3.70;;;;;;;4.96;79.72;99451.13;4987474;28;102802;-64
2023/11/18 00:10:09;;;;;;;5.38;3.35;;;;;;;4.95;80.08;99454.75;4983698;28;102755;-65
2023/11/18 00:12:40;;;;;;;5.88;3.72;;;;;;;4.93;80.74;99454.00;4988148;28;103292;-64
2023/11/18 00:15:11;;;;;;;8.55;5.22;;;;;;;4.93;80.83;99453.19;4994841;27;103221;-64
2023/11/18 00:17:40;;;;;;;6.80;5.32;;;;;;;4.97;80.60;99449.38;4993384;28;102773;-64
2023/11/18 00:20:12;;;;;;;6.50;4.63;;;;;;;4.94;80.59;99446.97;4997757;28;103889;-64
2023/11/18 00:22:41;;;;;;;6.65;4.10;;;;;;;4.94;80.71;99447.81;4998117;28;103442;-64
2023/11/18 00:25:10;;;;;;;5.85;4.40;;;;;;;4.93;80.52;99447.94;4992988;28;103179;-64
2023/11/18 00:27:38;;;;;;;5.70;4.00;;;;;;;4.96;80.49;99453.75;4995340;28;102872;-64
2023/11/18 00:30:10;;;;;;;6.00;4.38;;;;;;;4.95;80.21;99451.25;4992545;28;103928;-64
2023/11/18 00:32:40;;;;;;;5.10;3.65;;;;;;;4.94;79.95;99439.09;4994161;28;104001;-64
2023/11/18 00:35:10;;;;;;;6.22;3.70;;;;;;;4.94;80.02;99444.34;4990313;28;103089;-64
2023/11/18 00:37:38;;;;;;;5.53;3.95;;;;;;;4.94;80.05;99449.59;4988336;28;102780;-64
2023/11/18 00:40:09;;;;;;;4.47;3.40;;;;;;;4.96;80.26;99450.31;4991603;28;103127;-64
2023/11/18 00:42:36;;;;;;;4.65;3.30;;;;;;;4.98;79.98;99449.25;4996557;28;103379;-64
2023/11/18 00:45:08;;;;;;;4.60;3.25;;;;;;;5.02;80.13;99449.00;4986899;28;103240;-64
2023/11/18 00:47:40;;;;;;;6.70;4.95;;;;;;;5.05;79.66;99456.69;4988563;28;102636;-64
2023/11/18 00:50:09;;;;;;;5.60;4.38;;;;;;;5.03;80.00;99448.06;4987831;28;102870;-64
2023/11/18 00:52:41;;;;;;;7.15;4.63;;;;;;;4.90;80.27;99453.38;4990919;28;103341;-64
2023/11/18 00:55:10;;;;;;;5.50;3.55;;;;;;;4.87;81.05;99453.63;4988219;28;103263;-63
2023/11/18 00:57:39;;;;;;;5.97;4.20;;;;;;;4.95;80.76;99448.63;4984565;28;102637;-64
2023/11/18 01:00:13;;;;;;;6.10;4.15;;;;;;;4.97;80.78;99459.88;5010288;27;102937;-64
2023/11/18 01:02:43;;;;;;;7.38;4.63;;;;;;;4.92;80.76;99454.13;4991521;28;103318;-64
2023/11/18 01:05:15;;;;;;;5.67;3.90;;;;;;;4.93;80.92;99463.69;4993666;28;105174;-64
2023/11/18 01:07:43;;;;;;;5.22;3.33;;;;;;;4.99;80.96;99452.69;4992506;28;103578;-64
2023/11/18 01:10:13;;;;;;;5.03;3.45;;;;;;;5.07;80.75;99453.00;4989886;28;102685;-64
2023/11/18 01:12:44;;;;;;;5.95;4.07;;;;;;;5.03;81.12;99459.44;4991473;28;103215;-64
2023/11/18 01:15:12;;;;;;;5.43;3.70;;;;;;;5.03;80.83;99467.31;4986938;28;103210;-64
2023/11/18 01:17:40;;;;;;;6.03;4.25;;;;;;;5.05;80.55;99465.38;4994817;28;102649;-64
2023/11/18 01:20:12;;;;;;;6.25;3.95;;;;;;;4.94;80.69;99463.56;5004031;28;104094;-64
2023/11/18 01:22:43;;;;;;;6.03;4.53;;;;;;;4.89;81.06;99464.84;4984992;28;104293;-64
2023/11/18 01:25:11;;;;;;;5.72;3.80;;;;;;;4.96;81.21;99472.13;4993053;28;103427;-64
2023/11/18 01:27:39;;;;;;;5.63;3.88;;;;;;;5.02;81.22;99475.25;4991850;28;102802;-64
2023/11/18 01:30:09;;;;;;;5.63;4.25;;;;;;;5.05;80.81;99483.75;5003676;27;103858;-64
2023/11/18 01:32:39;;;;;;;5.63;4.07;;;;;;;5.10;81.07;99486.06;4987321;28;104102;-64
2023/11/18 01:35:12;;;;;;;6.18;4.10;;;;;;;5.13;81.23;99483.19;4992226;28;103442;-64
2023/11/18 01:37:40;;;;;;;5.18;3.38;;;;;;;5.17;81.13;99482.00;4993974;28;102855;-64
2023/11/18 01:40:12;;;;;;;6.45;3.83;;;;;;;5.23;80.80;99480.75;4988590;28;103977;-65
2023/11/18 01:42:43;;;;;;;6.18;4.13;;;;;;;5.22;80.92;99490.38;4992427;28;104314;-65
2023/11/18 01:45:11;;;;;;;4.97;3.38;;;;;;;5.26;81.00;99491.81;5001547;27;103377;-64
2023/11/18 01:47:42;;;;;;;4.45;3.00;;;;;;;5.29;80.90;99481.13;4991505;28;102574;-64
2023/11/18 01:50:14;;;;;;;5.10;3.42;;;;;;;5.35;80.87;99487.69;4986117;28;104124;-65
2023/11/18 01:52:42;;;;;;;5.07;3.15;;;;;;;5.39;81.04;99476.00;4990904;28;103376;-64
2023/11/18 01:55:14;;;;;;;4.78;3.20;;;;;;;5.45;81.36;99480.78;5006558;28;103175;-64
2023/11/18 01:57:43;;;;;;;5.20;3.60;;;;;;;5.48;80.92;99480.53;4987229;28;102662;-64
2023/11/18 02:00:13;;;;;;;4.97;3.47;;;;;;;5.45;80.54;99479.94;4989810;28;102728;-64
2023/11/18 02:02:43;;;;;;;5.72;4.13;;;;;;;5.47;80.53;99473.59;4985476;28;103331;-64
2023/11/18 02:05:13;;;;;;;6.43;4.10;;;;;;;5.41;80.66;99481.97;4995150;28;103232;-64
2023/11/18 02:07:41;;;;;;;5.78;4.63;;;;;;;5.35;80.49;99485.06;4988091;28;102686;-64
2023/11/18 02:10:11;;;;;;;6.85;4.88;;;;;;;5.32;80.58;99473.00;4990477;28;102693;-64
2023/11/18 02:12:45;;;;;;;6.95;4.60;;;;;;;5.27;80.42;99476.94;4988121;28;104157;-65
2023/11/18 02:15:15;;;;;;;5.75;3.92;;;;;;;5.25;81.25;99478.81;4983928;28;103395;-64
2023/11/18 02:17:46;;;;;;;6.57;3.60;;;;;;;5.30;81.00;99474.06;4992795;28;102650;-64
2023/11/18 02:20:16;;;;;;;7.07;5.03;;;;;;;5.34;80.83;99480.75;4982537;28;102787;-64
2023/11/18 02:22:46;;;;;;;5.88;4.32;;;;;;;5.30;80.97;99484.56;4989499;28;103364;-64
2023/11/18 02:25:17;;;;;;;7.18;5.22;;;;;;;5.35;81.01;99490.31;4987418;28;103210;-64
2023/11/18 02:27:47;;;;;;;6.00;4.28;;;;;;;5.35;80.89;99484.22;4984977;28;103076;-64
2023/11/18 02:30:18;;;;;;;6.90;4.20;;;;;;;5.29;81.05;99481.13;5006900;27;102987;-64
2023/11/18 02:32:53;;;;;;;6.13;3.97;;;;;;;5.33;81.21;99481.69;4991837;28;103342;-64
2023/11/18 02:35:26;;;;;;;6.90;5.13;;;;;;;5.35;81.01;99477.19;4988288;28;104255;-64
2023/11/18 02:37:56;;;;;;;5.57;4.20;;;;;;;5.30;81.11;99479.31;4985060;28;103113;-65
2023/11/18 02:40:30;;;;;;;5.72;3.80;;;;;;;5.34;81.27;99472.88;4994098;28;104226;-64
2023/11/18 02:43:01;;;;;;;5.25;3.58;;;;;;;5.34;81.17;99467.63;4985826;28;103255;-64
2023/11/18 02:45:31;;;;;;;4.85;3.35;;;;;;;5.34;81.05;99478.13;4991762;28;103184;-65
2023/11/18 02:48:00;;;;;;;4.90;3.38;;;;;;;5.32;81.11;99480.03;4988564;28;102894;-64
2023/11/18 02:50:29;;;;;;;4.18;2.92;;;;;;;5.32;80.98;99478.25;4986188;28;102749;-65
2023/11/18 02:52:57;;;;;;;5.63;3.80;;;;;;;5.29;80.72;99475.00;4993403;28;103304;-65
2023/11/18 02:55:25;;;;;;;6.75;4.57;;;;;;;5.23;80.39;99478.94;4988195;28;103366;-65
2023/11/18 02:57:54;;;;;;;5.80;3.80;;;;;;;5.13;80.72;99473.53;4994662;28;103091;-64
2023/11/18 03:00:23;;;;;;;7.22;4.35;;;;;;;5.07;80.18;99476.63;4991016;28;104115;-64
2023/11/18 03:02:52;;;;;;;6.20;4.40;;;;;;;5.02;80.76;99468.25;4986520;28;103616;-64
2023/11/18 03:05:21;;;;;;;5.50;3.85;;;;;;;4.98;80.47;99466.81;4993662;28;103228;-65
2023/11/18 03:07:51;;;;;;;4.35;2.97;;;;;;;5.02;80.96;99457.75;4986912;28;103232;-64
2023/11/18 03:10:21;;;;;;;4.22;2.88;;;;;;;5.05;80.73;99462.75;4988294;28;102770;-64
2023/11/18 03:12:52;;;;;;;4.13;2.67;;;;;;;5.07;80.62;99463.50;4989044;28;103372;-64
2023/11/18 03:15:21;;;;;;;4.65;2.90;;;;;;;5.06;80.33;99464.44;4994532;28;103248;-64
2023/11/18 03:17:51;;;;;;;6.65;4.88;;;;;;;5.06;79.47;99474.13;4990784;28;102702;-64
2023/11/18 03:20:23;;;;;;;6.22;4.47;;;;;;;4.84;79.92;99474.84;4994115;28;103998;-64
2023/11/18 03:22:53;;;;;;;7.35;4.40;;;;;;;4.75;80.76;99474.56;4989577;28;104109;-64
2023/11/18 03:25:22;;;;;;;5.50;4.72;;;;;;;4.74;80.41;99469.44;4990408;28;103244;-64
2023/11/18 03:27:50;;;;;;;7.00;4.95;;;;;;;4.74;81.05;99465.03;4989303;28;102705;-64
2023/11/18 03:30:22;;;;;;;5.15;3.38;;;;;;;4.78;81.41;99465.63;4993488;28;102854;-65
2023/11/18 03:32:51;;;;;;;4.82;3.30;;;;;;;4.84;81.10;99464.34;4990135;28;104498;-64
2023/11/18 03:35:19;;;;;;;6.07;3.75;;;;;;;4.86;80.65;99467.69;4995135;28;103186;-65
2023/11/18 03:37:47;;;;;;;4.70;3.40;;;;;;;4.83;80.60;99463.50;4988258;28;102603;-63
2023/11/18 03:40:16;;;;;;;5.65;3.63;;;;;;;4.82;80.70;99475.81;4992302;27;102705;-64
2023/11/18 03:42:46;;;;;;;6.38;3.92;;;;;;;4.79;80.69;99473.41;5005004;27;104307;-64
2023/11/18 03:45:14;;;;;;;6.30;4.35;;;;;;;4.64;80.63;99479.75;4992420;27;102986;-64
2023/11/18 03:47:43;;;;;;;5.35;3.95;;;;;;;4.65;81.03;99478.78;4993438;28;102565;-64
2023/11/18 03:50:13;;;;;;;5.75;3.95;;;;;;;4.74;80.93;99475.53;4992837;28;103951;-64
2023/11/18 03:52:41;;;;;;;6.45;3.70;;;;;;;4.82;81.70;99477.56;4998069;28;104186;-64
2023/11/18 03:55:12;;;;;;;5.82;4.35;;;;;;;4.84;81.01;99483.56;4996484;28;103307;-64
2023/11/18 03:57:40;;;;;;;7.32;5.40;;;;;;;4.79;80.42;99477.81;4989667;28;102580;-64
2023/11/18 04:00:11;;;;;;;7.20;5.28;;;;;;;4.78;80.59;99465.63;4995927;28;102634;-64
2023/11/18 04:02:42;;;;;;;7.15;5.50;;;;;;;4.65;80.47;99476.16;4992209;28;103329;-64
2023/11/18 04:05:13;;;;;;;6.88;4.07;;;;;;;4.64;80.99;99474.53;4995043;28;103238;-64
2023/11/18 04:07:41;;;;;;;7.38;5.53;;;;;;;4.57;80.53;99474.13;4992160;28;102673;-64
2023/11/18 04:10:11;;;;;;;6.80;5.03;;;;;;;4.43;81.17;99467.25;4993751;28;104484;-64
2023/11/18 04:12:39;;;;;;;5.50;4.53;;;;;;;4.37;81.27;99475.53;4996509;28;103010;-64
2023/11/18 04:15:08;;;;;;;5.70;4.45;;;;;;;4.30;81.21;99482.19;4990288;28;103436;-64
2023/11/18 04:17:37;;;;;;;6.82;5.10;;;;;;;4.36;81.52;99481.72;4997995;28;102897;-64
2023/11/18 04:20:11;;;;;;;5.93;4.20;;;;;;;4.31;81.54;99479.44;4993003;28;102572;-64
2023/11/18 04:22:41;;;;;;;4.85;3.47;;;;;;;4.26;81.23;99483.34;4996944;28;103240;-64
2023/11/18 04:25:11;;;;;;;5.10;3.67;;;;;;;4.26;81.18;99476.31;4997109;28;103260;-64
2023/11/18 04:27:40;;;;;;;4.95;3.28;;;;;;;4.33;81.29;99492.44;4996337;28;102802;-64
2023/11/18 04:30:12;;;;;;;4.50;2.92;;;;;;;4.37;81.52;99480.78;4993315;28;103852;-63
2023/11/18 04:32:42;;;;;;;6.03;4.30;;;;;;;4.38;80.79;99471.97;4991166;28;103311;-64
2023/11/18 04:35:11;;;;;;;5.85;3.42;;;;;;;4.38;80.80;99473.78;4997266;28;103132;-67
2023/11/18 04:37:45;;;;;;;4.35;3.10;;;;;;;4.33;80.28;99474.09;4993432;28;102726;-64
2023/11/18 04:40:15;;;;;;;;;;;;;;;4.26;80.34;99485.97;4995641;28;104725;-64
2023/11/18 04:42:43;;;;;;;7.85;5.18;;;;;;;4.19;79.78;99482.09;4995275;28;103152;-64
2023/11/18 04:45:14;;;;;;;6.18;4.28;;;;;;;4.18;80.13;99477.78;4996020;28;103228;-64
2023/11/18 04:47:43;;;;;;;5.70;3.78;;;;;;;4.06;80.74;99475.09;5011838;27;102684;-64
2023/11/18 04:50:14;;;;;;;6.07;3.88;;;;;;;4.08;80.83;99478.44;4994675;28;104371;-64
2023/11/18 04:52:44;;;;;;;6.63;4.03;;;;;;;4.06;80.36;99477.72;4994840;28;103819;-64
2023/11/18 04:55:13;;;;;;;4.57;3.20;;;;;;;4.06;80.71;99474.25;4994521;28;103215;-64
2023/11/18 04:57:41;;;;;;;6.22;3.90;;;;;;;4.04;80.23;99473.53;4997249;28;102634;-64
2023/11/18 05:00:11;;;;;;;4.93;3.20;;;;;;;4.09;80.44;99472.25;4994812;28;103024;-64
2023/11/18 05:02:39;;;;;;;4.63;2.80;;;;;;;4.06;80.41;99482.97;4991955;28;103272;-64
2023/11/18 05:05:08;;;;;;;4.43;2.78;;;;;;;4.11;80.73;99488.72;4991739;28;103037;-64
2023/11/18 05:07:38;;;;;;;4.00;2.90;;;;;;;4.14;80.86;99475.38;4997359;28;102709;-64
2023/11/18 05:10:10;;;;;;;3.83;2.47;;;;;;;4.04;80.30;99476.97;4989469;28;102821;-64
2023/11/18 05:12:39;;;;;;;3.75;2.45;;;;;;;4.04;80.09;99476.16;4985189;28;104312;-64
2023/11/18 05:15:08;;;;;;;3.38;2.30;;;;;;;4.00;80.00;99475.50;4996597;28;104557;-64
2023/11/18 05:17:36;;;;;;;4.40;3.10;;;;;;;4.01;79.73;99477.19;4992376;28;102962;-64
2023/11/18 05:20:08;;;;;;;4.00;2.70;;;;;;;3.96;80.31;99477.50;4994065;28;102971;-64
2023/11/18 05:22:37;;;;;;;7.35;3.25;;;;;;;3.91;80.09;99473.53;4999622;28;104181;-64
2023/11/18 05:25:06;;;;;;;4.50;2.80;;;;;;;3.90;80.43;99480.53;4991981;28;103253;-64
2023/11/18 05:27:35;;;;;;;3.55;2.33;;;;;;;3.87;80.13;99478.16;4996833;28;102728;-64
2023/11/18 05:30:05;;;;;;;3.75;2.60;;;;;;;3.89;79.95;99470.16;4996056;28;103242;-64
2023/11/18 05:32:33;;;;;;;5.50;3.35;;;;;;;3.81;79.63;99476.81;4989243;28;103759;-64
2023/11/18 05:35:01;;;;;;;4.75;2.83;;;;;;;3.70;80.33;99474.06;4988307;28;103179;-64
2023/11/18 05:37:35;;;;;;;4.32;2.97;;;;;;;3.71;80.43;99474.91;4994736;28;102729;-69
2023/11/18 05:40:06;;;;;;;5.15;3.10;;;;;;;3.71;81.10;99465.28;4998028;28;103392;-69
2023/11/18 05:42:37;;;;;;;4.43;3.08;;;;;;;3.73;80.85;99468.59;4993947;28;102673;-68
2023/11/18 05:45:10;;;;;;;4.33;3.17;;;;;;;3.70;80.95;99468.81;4992866;28;103187;-69
2023/11/18 05:47:38;;;;;;;3.92;2.67;;;;;;;3.72;81.05;99477.44;5010290;27;102686;-68
2023/11/18 05:50:07;;;;;;;3.95;2.83;;;;;;;3.78;80.76;99482.22;4993573;28;103667;-68
2023/11/18 05:52:41;;;;;;;4.45;3.03;;;;;;;3.81;80.64;99473.31;4997433;28;103076;-69
2023/11/18 05:55:18;;;;;;;4.55;2.70;;;;;;;3.80;80.55;99469.88;5001925;28;103013;-68
2023/11/18 05:57:47;;;;;;;6.28;3.97;;;;;;;3.84;80.85;99469.66;4998184;28;102664;-68
2023/11/18 06:00:30;;;;;;;5.72;4.47;;;;;;;3.84;80.57;99467.88;4997220;28;102744;-69
2023/11/18 06:03:11;;;;;;;9.38;7.43;;;;;;;3.83;80.78;99460.13;5007847;27;104094;-69
2023/11/18 06:05:39;;;;;;;6.80;5.13;;;;;;;3.72;80.91;99450.38;4996290;28;103297;-68
2023/11/18 06:08:07;;;;;;;5.70;4.20;;;;;;;3.71;81.04;99454.78;4994329;28;102591;-68
2023/11/18 06:10:35;;;;;;;5.60;3.83;;;;;;;3.71;80.49;99460.03;4992918;28;102684;-68
2023/11/18 06:13:06;;;;;;;5.50;4.40;;;;;;;3.74;80.57;99449.31;4988906;28;103993;-70
2023/11/18 06:15:35;;;;;;;5.13;3.55;;;;;;;3.75;80.93;99453.63;4992324;28;103309;-69
2023/11/18 06:18:04;;;;;;;4.65;3.53;;;;;;;3.77;80.69;99443.91;4996816;28;102642;-68
2023/11/18 06:20:36;;;;;;;4.90;4.00;;;;;;;3.83;80.56;99441.78;4993808;28;102698;-69
2023/11/18 06:23:03;;;;;;;5.57;3.95;;;;;;;3.80;80.34;99438.44;4995740;28;103322;-68
2023/11/18 06:25:31;;;;;;;4.07;3.15;;;;;;;3.83;80.90;99439.16;4990754;28;103240;-67
2023/11/18 06:27:59;;;;;;;4.35;3.03;;;;;;;3.86;80.80;99445.00;4998821;28;102616;-68
2023/11/18 06:30:29;;;;;;;5.32;3.92;;;;;;;3.84;78.93;99453.94;4992225;28;104073;-68
2023/11/18 06:32:57;;;;;;;4.60;3.70;;;;;;;3.68;79.90;99473.31;4991978;28;103285;-68
2023/11/18 06:35:25;;;;;;;5.57;3.58;;;;;;;3.68;80.24;99483.78;4995828;28;102970;-69
2023/11/18 06:37:53;;;;;;;4.35;3.25;;;;;;;3.70;80.33;99479.31;4989747;28;102547;-68
2023/11/18 06:40:21;;;;;;;4.30;2.88;;;;;;;3.69;79.88;99488.09;4999570;28;102601;-68
2023/11/18 06:42:50;;;;;;;7.55;4.43;;;;;;;3.62;79.06;99492.09;4992477;28;103029;-64
2023/11/18 06:45:18;;;;;;;4.60;3.35;;;;;;;3.55;80.23;99498.69;4996902;28;103117;-64
2023/11/18 06:47:49;;;;;;;4.22;3.08;;;;;;;3.57;79.69;99486.34;4988129;28;102764;-64
2023/11/18 06:50:17;;;;;;;5.75;4.05;;;;;;;3.44;78.57;99487.13;4999893;28;102740;-67
2023/11/18 06:52:45;;;;;;;6.53;4.07;;;;;;;3.39;79.57;99476.13;4993479;28;103328;-64
2023/11/18 06:55:16;;;;;;;6.10;3.92;;;;;;;3.35;80.09;99477.28;4993549;28;103442;-63
2023/11/18 06:57:44;;;;;;;6.57;3.78;;;;;;;3.30;79.83;99482.00;4982624;28;102769;-64
2023/11/18 07:00:14;;;;;;;13.65;8.52;;;;;;;3.22;80.06;99474.66;4990972;28;102749;-64
2023/11/18 07:02:42;;;;;;;6.20;4.10;;;;;;;3.23;80.91;99473.72;4994725;28;104154;-64
2023/11/18 07:05:14;;;;;;;7.05;4.32;;;;;;;3.25;80.51;99479.69;4985556;28;103275;-64
2023/11/18 07:07:43;;;;;;;6.07;4.30;;;;;;;3.38;80.94;99469.25;4995099;28;103116;-64
2023/11/18 07:10:13;;;;;;;4.88;3.08;;;;;;;3.38;80.48;99479.72;4991240;28;102756;-65
2023/11/18 07:12:41;;;;;;;5.70;4.30;;;;;;;3.45;80.87;99486.22;4994056;28;103299;-64
2023/11/18 07:15:10;;;;;;;7.68;4.63;;;;;;;3.45;81.27;99475.72;4983726;28;103300;-68
2023/11/18 07:17:38;;;;;;;6.65;3.97;;;;;;;3.65;81.80;99481.41;4986825;28;102701;-68
2023/11/18 07:20:08;;;;;;;6.32;4.65;;;;;;;3.87;80.67;99487.81;4988026;28;102911;-68
2023/11/18 07:22:37;;;;;;;6.35;4.32;;;;;;;4.09;81.23;99487.97;4986467;28;103310;-68
2023/11/18 07:25:09;;;;;;;6.18;3.97;;;;;;;4.30;80.50;99492.66;4990143;28;103294;-67
2023/11/18 07:27:37;;;;;;;6.55;3.90;;;;;;;4.45;80.41;99496.84;5000156;28;102637;-63
2023/11/18 07:30:10;;;;;;;5.00;3.30;;;;;;;4.60;80.03;99491.44;4986686;28;104250;-63
2023/11/18 07:32:39;;;;;;;5.00;3.20;;;;;;;4.75;79.97;99498.19;4986478;28;104704;-67
2023/11/18 07:35:09;;;;;;;4.57;3.13;;;;;;;4.99;79.58;99489.44;4995113;28;103231;-67
2023/11/18 07:37:38;;;;;;;5.28;3.72;;;;;;;5.06;78.75;99490.69;4994845;28;102561;-64
2023/11/18 07:40:11;;;;;;;4.90;3.28;;;;;;;5.04;79.71;99482.09;4994555;28;104116;-68
2023/11/18 07:42:40;;;;;;;6.30;3.65;;;;;;;5.02;79.16;99491.03;4987531;28;103233;-68
2023/11/18 07:45:17;;;;;;;3.88;2.58;;;;;;;5.16;79.15;99480.34;4990956;28;103350;-67
2023/11/18 07:47:46;;;;;;;4.60;2.70;;;;;;;5.35;79.40;99473.72;4990369;28;102664;-66
2023/11/18 07:50:16;;;;;;;5.60;3.45;;;;;;;5.63;78.75;99473.31;4992089;28;102598;-63
2023/11/18 07:52:46;;;;;;;5.10;3.47;;;;;;;5.72;78.06;99477.00;4992762;28;103251;-63
2023/11/18 07:55:14;;;;;;;4.93;3.65;;;;;;;5.73;77.62;99468.16;5000058;28;103217;-63
2023/11/18 07:57:43;;;;;;;4.72;3.20;;;;;;;5.77;77.84;99468.78;5004593;28;103195;-67
2023/11/18 08:00:15;;;;;;;4.47;2.95;;;;;;;5.81;77.69;99476.28;4990673;28;102835;-67
2023/11/18 08:02:45;;;;;;;4.82;3.03;;;;;;;5.91;77.70;99475.59;5015715;27;103409;-64
2023/11/18 08:05:14;;;;;;;5.68;3.95;;;;;;;5.90;76.89;99476.56;4993906;28;103199;-63
2023/11/18 08:07:44;;;;;;;4.50;3.25;;;;;;;5.85;76.93;99476.88;5002428;28;102828;-63
2023/11/18 08:10:18;;;;;;;5.40;3.15;;;;;;;5.96;76.90;99494.47;5002584;28;104518;-67
2023/11/18 08:12:46;;;;;;;4.32;3.22;;;;;;;5.92;76.90;99477.25;5015773;27;104236;-66
2023/11/18 08:15:15;;;;;;;6.38;3.95;;;;;;;5.95;76.88;99463.88;4997084;28;103159;-66
2023/11/18 08:17:43;;;;;;;6.38;4.15;;;;;;;5.99;77.27;99462.72;4993337;28;102855;-65
2023/11/18 08:20:14;;;;;;;6.85;4.72;;;;;;;6.09;77.42;99479.44;4997414;28;103029;-65
2023/11/18 08:22:43;;;;;;;5.65;4.30;;;;;;;6.11;77.20;99488.03;4992387;28;103918;-73
2023/11/18 08:25:23;;;;;;;5.28;3.70;;;;;;;6.16;77.12;99478.94;4986474;28;103064;-70
2023/11/18 08:28:00;;;;;;;6.50;4.38;;;;;;;6.19;76.91;99489.25;4985071;28;102619;-72
2023/11/18 08:30:28;;;;;;;5.95;3.85;;;;;;;6.17;76.35;99485.88;4992523;28;104552;-68
2023/11/18 08:32:57;;;;;;;4.82;3.20;;;;;;;6.12;76.42;99481.84;4991022;28;104195;-68
2023/11/18 08:35:25;;;;;;;4.90;3.00;;;;;;;6.14;76.18;99487.81;4987971;28;103393;-68
2023/11/18 08:37:53;;;;;;;6.47;3.80;;;;;;;6.18;75.41;99477.06;4989093;28;103845;-68
2023/11/18 08:40:24;;;;;;;5.60;3.65;;;;;;;6.17;76.41;99485.88;5000123;28;102832;-66
2023/11/18 08:51:33;;;;;;;7.25;3.60;;;;;;;6.23;75.71;99480.97;4995466;28;103168;-67
2023/11/18 08:54:14;;;;;;;5.40;3.45;;;;;;;6.27;75.76;99492.94;4986343;28;102655;-67
2023/11/18 09:01:12;;;;;;;5.18;3.42;;;;;;;6.43;75.33;99460.16;4987999;28;103129;-67
2023/11/18 09:03:48;;;;;;;4.90;3.38;;;;;;;6.52;75.33;99453.31;4985972;28;104378;-66
2023/11/18 09:06:18;;;;;;;7.05;3.70;;;;;;;6.60;75.31;99466.69;4993200;28;102679;-65
2023/11/18 09:08:52;;;;;;;5.90;3.17;;;;;;;6.68;74.58;99459.03;4991360;28;103106;-66
2023/11/18 09:11:23;;;;;;;6.63;3.42;;;;;;;6.70;75.13;99466.78;4994321;28;103207;-65
2023/11/18 09:13:53;;;;;;;4.40;2.72;;;;;;;6.73;75.42;99461.28;4982178;28;102754;-67
2023/11/18 09:16:25;;;;;;;6.72;3.90;;;;;;;6.90;74.47;99467.78;4994411;28;102911;-68
2023/11/18 09:18:58;;;;;;;5.32;3.13;;;;;;;7.07;73.72;99471.69;4986800;28;103201;-67
2023/11/18 09:21:29;;;;;;;7.15;3.45;;;;;;;6.92;74.24;99471.16;4993670;28;103311;-67
2023/11/18 09:23:58;;;;;;;5.10;2.55;;;;;;;7.10;74.20;99464.38;4995393;28;102713;-67
2023/11/18 09:26:29;;;;;;;8.55;5.63;;;;;;;7.24;73.01;99472.91;4994750;27;103024;-67
2023/11/18 09:29:01;;;;;;;8.38;4.97;;;;;;;7.26;72.42;99468.38;4984256;28;104058;-68
2023/11/18 09:31:33;;;;;;;10.93;7.15;;;;;;;7.24;73.33;99470.28;4995638;28;104572;-67
2023/11/18 09:34:04;;;;;;;20.67;12.00;;;;;;;7.36;72.05;99458.69;4994238;28;103823;-66
2023/11/18 09:36:33;;;;;;;11.65;7.93;;;;;;;7.51;72.36;99464.50;4990622;28;102784;-68
2023/11/18 09:39:03;;;;;;;8.23;5.55;;;;;;;7.65;71.70;99468.63;4988008;28;103226;-67
2023/11/18 09:41:33;;;;;;;9.40;5.38;;;;;;;7.73;71.53;99466.16;4989546;28;103221;-66
2023/11/18 09:44:02;;;;;;;22.65;17.40;;;;;;;7.74;71.12;99470.47;4992734;28;103226;-65
2023/11/18 09:46:34;;;;;;;11.50;8.75;;;;;;;7.74;71.11;99472.25;4982717;28;102638;-65
2023/11/18 09:49:15;;;;;;;6.55;3.92;;;;;;;7.80;71.84;99469.09;4992369;28;104279;-65
2023/11/18 09:51:46;;;;;;;4.70;3.30;;;;;;;7.86;71.71;99465.09;4991518;28;103172;-66
2023/11/18 09:54:29;;;;;;;11.20;7.63;;;;;;;7.84;70.64;99454.66;4988342;28;102715;-65
2023/11/18 09:57:08;;;;;;;12.48;6.35;;;;;;;7.98;69.98;99464.03;4990744;28;102655;-65
2023/11/18 09:59:47;;;;;;;6.53;3.78;;;;;;;8.04;71.28;99452.13;4987662;28;104124;-66
2023/11/18 10:02:23;;;;;;;4.22;2.65;;;;;;;8.02;71.20;99454.88;4988734;28;103214;-65
2023/11/18 10:04:57;;;;;;;5.93;3.47;;;;;;;8.13;71.13;99462.72;4995922;28;103032;-66
2023/11/18 10:07:30;;;;;;;5.30;2.53;;;;;;;8.12;70.70;99454.91;4992106;28;103746;-65
2023/11/18 10:09:58;;;;;;;6.57;4.10;;;;;;;8.07;70.19;99450.06;4993583;28;103309;-66
2023/11/18 10:12:27;;;;;;;4.88;2.50;;;;;;;8.17;69.52;99458.00;4990699;28;103049;-65
2023/11/18 10:14:56;;;;;;;4.72;2.50;;;;;;;8.23;70.24;99454.00;4993142;28;102765;-65
2023/11/18 10:17:26;;;;;;;5.57;2.92;;;;;;;8.18;70.57;99448.28;4989103;28;104482;-65
2023/11/18 10:19:56;;;;;;;4.35;2.50;;;;;;;7.99;71.32;99441.13;4994495;28;104052;-65
2023/11/18 10:22:27;;;;;;;4.68;2.88;;;;;;;8.12;69.97;99450.50;4998158;28;103899;-66
2023/11/18 10:24:56;;;;;;;4.55;2.97;;;;;;;8.03;71.15;99440.75;4998739;28;102555;-67
2023/11/18 10:27:26;;;;;;;4.43;2.63;;;;;;;8.32;70.85;99434.72;4996611;28;102622;-67
2023/11/18 10:29:57;;;;;;;5.32;2.80;;;;;;;8.35;71.04;99450.28;4996905;28;103327;-67
2023/11/18 10:32:28;;;;;;;4.75;2.58;;;;;;;8.28;70.45;99444.69;4993625;28;103187;-67
2023/11/18 10:34:57;;;;;;;4.50;2.35;;;;;;;8.26;70.27;99451.06;4994110;28;102918;-67
2023/11/18 10:37:30;;;;;;;5.60;2.50;;;;;;;8.24;69.64;99442.44;4992212;28;103927;-66
2023/11/18 10:40:00;;;;;;;4.65;2.70;;;;;;;8.20;69.26;99452.47;4996489;28;102981;-67
2023/11/18 10:42:30;;;;;;;4.07;2.40;;;;;;;8.18;68.69;99458.84;4995852;28;103295;-67
2023/11/18 10:45:01;;;;;;;3.05;2.05;;;;;;;8.10;68.80;99455.06;4993675;28;102682;-66
2023/11/18 10:47:33;;;;;;;3.75;2.10;;;;;;;8.23;68.78;99448.72;4995389;28;102855;-67
2023/11/18 10:50:02;;;;;;;3.90;2.20;;;;;;;8.24;68.44;99448.56;5000280;28;103222;-67
2023/11/18 10:52:34;;;;;;;5.97;2.38;;;;;;;8.30;68.65;99442.78;4993534;28;103204;-67
2023/11/18 10:55:11;;;;;;;3.13;1.92;;;;;;;8.34;67.81;99448.59;4994012;28;102859;-66
2023/11/18 10:57:41;;;;;;;4.40;2.15;;;;;;;8.38;68.36;99433.31;4994022;28;102594;-66
2023/11/18 11:00:14;;;;;;;3.42;2.00;;;;;;;8.27;68.35;99436.91;4997744;28;103515;-65
2023/11/18 11:11:40;;;;;;;2.83;1.83;;;;;;;8.33;67.99;99415.25;4980993;28;102916;-66
2023/11/18 11:14:13;;;;;;;5.72;2.50;;;;;;;8.39;68.01;99419.97;4995364;28;103241;-67
2023/11/18 11:21:21;;;;;;;4.78;2.13;;;;;;;8.35;67.85;99417.78;4991963;28;103185;-68
2023/11/18 11:32:49;;;;;;;3.90;2.30;;;;;;;8.50;67.21;99410.31;4992520;28;103091;-65
2023/11/18 11:44:06;;;;;;;3.33;1.92;;;;;;;8.59;66.89;99394.50;4990549;28;103242;-66
2023/11/18 11:55:38;;;;;;;5.40;2.25;;;;;;;8.73;67.27;99371.28;4990769;28;102727;-65
2023/11/18 11:58:27;;;;;;;7.78;2.85;;;;;;;8.69;66.96;99360.16;4995259;28;103293;-65
2023/11/18 12:00:55;;;;;;;5.20;3.00;;;;;;;8.78;67.54;99366.41;4991880;28;103240;-66
2023/11/18 12:12:20;;;;;;;4.22;2.10;;;;;;;8.74;67.65;99357.94;4991181;28;104110;-67
2023/11/18 12:14:52;;;;;;;4.28;1.92;;;;;;;8.76;67.57;99347.22;4995513;28;103251;-66
2023/11/18 12:17:24;;;;;;;4.30;2.08;;;;;;;8.80;66.43;99332.75;4996615;28;102530;-65
2023/11/18 12:19:58;;;;;;;3.72;2.00;;;;;;;8.72;66.25;99325.53;4991279;28;103259;-66
2023/11/18 12:22:30;;;;;;;4.97;2.45;;;;;;;8.64;65.96;99314.84;5001946;28;104339;-67
2023/11/18 12:25:40;;;;;;;4.30;2.35;;;;;;;8.63;65.71;99297.31;4989373;28;103295;-65
2023/11/18 12:28:16;;;;;;;8.80;2.67;;;;;;;8.56;65.92;99299.69;4991620;28;102991;-67
2023/11/18 12:31:04;;;;;;;5.32;3.67;;;;;;;8.57;66.52;99290.00;4986461;28;103936;-66
2023/11/18 12:34:02;;;;;;;5.03;3.35;;;;;;;8.56;66.31;99310.25;4995848;28;104140;-66
2023/11/18 12:37:02;;;;;;;6.65;3.28;;;;;;;8.53;66.07;99300.00;4983349;28;103242;-66
2023/11/18 12:40:03;;;;;;;4.10;2.28;;;;;;;8.56;66.07;99294.41;4996169;28;102704;-65
2023/11/18 12:42:59;;;;;;;4.82;2.47;;;;;;;8.54;66.71;99280.53;4995033;28;103865;-65
2023/11/18 12:45:44;;;;;;;5.38;3.25;;;;;;;8.53;66.16;99275.38;4992617;28;102976;-67
2023/11/18 12:48:16;;;;;;;5.38;2.20;;;;;;;8.57;65.62;99268.88;4990655;28;103238;-66
2023/11/18 12:50:46;;;;;;;4.15;2.60;;;;;;;8.51;66.42;99279.97;4996938;28;102769;-68
2023/11/18 12:53:18;;;;;;;4.15;2.17;;;;;;;8.59;66.33;99288.88;4997253;28;102672;-67